Time;durP1;ratioP1;P1;durP2;ratioP2;P2;SDS_P1;SDS_P2;PMS_P1;PMS_P2;Temp;Humidity;BMP_temperature;BMP_pressure;BME280_temperature;BME280_humidity;BME280_pressure;Samples;Min_cycle;Max_cycle;Signal;HPM_P1;HPM_P2
2023/12/14 00:01:21;;;;;;;;;;;9.80;99.90;;;;;;6276573;22;19906;-84
2023/12/14 00:03:47;;;;;;;;;;;9.80;99.90;;;;;;6276840;22;20007;-84
2023/12/14 00:06:13;;;;;;;;;;;9.70;99.90;;;;;;6249987;22;19900;-83
2023/12/14 00:08:39;;;;;;;;;;;9.70;99.90;;;;;;6249918;22;20233;-83
2023/12/14 00:11:08;;;;;;;;;;;9.70;99.90;;;;;;6276458;22;19903;-84
2023/12/14 00:13:34;;;;;;;;;;;9.60;99.90;;;;;;6276599;22;19899;-83
2023/12/14 00:15:59;;;;;;;;;;;9.70;99.90;;;;;;6274403;22;19907;-84
2023/12/14 00:18:25;;;;;;;;;;;9.60;99.90;;;;;;6274050;22;19900;-84
2023/12/14 00:20:50;;;;;;;;;;;9.60;99.90;;;;;;6275286;22;19899;-85
2023/12/14 00:23:16;;;;;;;;;;;9.60;99.90;;;;;;6275665;22;19899;-84
2023/12/14 00:25:42;;;;;;;;;;;9.60;99.90;;;;;;6275754;22;19899;-83
2023/12/14 00:28:08;;;;;;;;;;;9.60;99.90;;;;;;6276621;22;19903;-84
2023/12/14 00:30:33;;;;;;;;;;;9.50;99.90;;;;;;6276182;22;19899;-84
2023/12/14 00:32:59;;;;;;;;;;;9.50;99.90;;;;;;6276272;22;20268;-84
2023/12/14 00:35:24;;;;;;;;;;;9.50;99.90;;;;;;6276517;22;19910;-85
2023/12/14 00:37:50;;;;;;;;;;;9.50;99.90;;;;;;6276529;22;20238;-84
2023/12/14 00:40:15;;;;;;;;;;;9.40;99.90;;;;;;6276898;22;19950;-85
2023/12/14 00:42:41;;;;;;;;;;;9.50;99.90;;;;;;6275562;22;20210;-85
2023/12/14 00:45:07;;;;;;;;;;;9.40;99.90;;;;;;6276435;22;19899;-84
2023/12/14 00:47:32;;;;;;;;;;;9.40;99.90;;;;;;6276053;22;19951;-84
2023/12/14 00:49:58;;;;;;;;;;;9.40;99.90;;;;;;6276369;22;19911;-85
2023/12/14 00:52:23;;;;;;;;;;;9.40;99.90;;;;;;6248524;22;19899;-84
2023/12/14 00:54:49;;;;;;;;;;;9.30;99.90;;;;;;6276023;22;19925;-84
2023/12/14 00:57:14;;;;;;;;;;;9.30;99.90;;;;;;6275574;22;19903;-83
2023/12/14 00:59:40;;;;;;;;;;;9.20;99.90;;;;;;6277950;22;20293;-82
2023/12/14 01:02:06;;;;;;;;;;;9.20;99.90;;;;;;6278270;22;19900;-83
2023/12/14 01:04:31;;;;;;;;;;;9.10;99.90;;;;;;6250960;22;19899;-83
2023/12/14 01:06:57;;;;;;;;;;;9.10;99.90;;;;;;6277711;22;19902;-83
2023/12/14 01:09:22;;;;;;;;;;;9.10;99.90;;;;;;6278655;22;19899;-83
2023/12/14 01:11:48;;;;;;;;;;;9.10;99.90;;;;;;6277588;22;19903;-82
2023/12/14 01:14:13;;;;;;;;;;;9.10;99.90;;;;;;6278150;22;19903;-82
2023/12/14 01:16:39;;;;;;;;;;;9.10;99.90;;;;;;6278644;22;19933;-82
2023/12/14 01:19:05;;;;;;;;;;;9.00;99.90;;;;;;6251017;22;19910;-82
2023/12/14 01:21:31;;;;;;;;;;;9.00;99.90;;;;;;6277669;22;19906;-81
2023/12/14 01:23:57;;;;;;;;;;;9.00;99.90;;;;;;6277778;22;19903;-82
2023/12/14 01:26:22;;;;;;;;;;;9.00;99.90;;;;;;6277353;22;19906;-82
2023/12/14 01:28:48;;;;;;;;;;;9.00;99.90;;;;;;6278106;22;20355;-82
2023/12/14 01:31:13;;;;;;;;;;;9.00;99.90;;;;;;6278159;22;19931;-82
2023/12/14 01:33:39;;;;;;;;;;;9.00;99.90;;;;;;6278483;22;19907;-82
2023/12/14 01:36:05;;;;;;;;;;;9.00;99.90;;;;;;6278042;22;20195;-82
2023/12/14 01:38:30;;;;;;;;;;;9.10;99.90;;;;;;6277975;22;19903;-82
2023/12/14 01:40:56;;;;;;;;;;;9.10;99.90;;;;;;6277248;22;19995;-82
2023/12/14 01:43:21;;;;;;;;;;;9.10;99.90;;;;;;6277772;22;19915;-82
2023/12/14 01:45:47;;;;;;;;;;;9.10;99.90;;;;;;6278477;22;19975;-82
2023/12/14 01:48:12;;;;;;;;;;;9.00;99.90;;;;;;6278236;22;19916;-83
2023/12/14 01:50:38;;;;;;;;;;;9.10;99.90;;;;;;6250815;22;19900;-84
2023/12/14 01:53:04;;;;;;;;;;;9.10;99.90;;;;;;6278142;22;19903;-83
2023/12/14 01:55:29;;;;;;;;;;;9.10;99.90;;;;;;6250963;22;20206;-83
2023/12/14 01:57:55;;;;;;;;;;;9.10;99.90;;;;;;6277038;22;19903;-84
2023/12/14 02:00:27;;;;;;;;;;;9.00;99.90;;;;;;6277246;22;19930;-84
2023/12/14 02:02:53;;;;;;;;;;;9.00;99.90;;;;;;6277968;22;19899;-84
2023/12/14 02:05:19;;;;;;;;;;;9.00;99.90;;;;;;6277958;22;19899;-84
2023/12/14 02:07:45;;;;;;;;;;;9.00;99.90;;;;;;6277783;22;20206;-82
2023/12/14 02:10:10;;;;;;;;;;;9.00;99.90;;;;;;6277465;22;19906;-80
2023/12/14 02:12:36;;;;;;;;;;;9.00;99.90;;;;;;6277417;22;20558;-81
2023/12/14 02:15:01;;;;;;;;;;;9.00;99.90;;;;;;6276427;22;19907;-82
2023/12/14 02:17:27;;;;;;;;;;;9.00;99.90;;;;;;6277775;22;19904;-82
2023/12/14 02:19:52;;;;;;;;;;;9.00;99.90;;;;;;6277206;22;19974;-81
2023/12/14 02:22:18;;;;;;;;;;;9.00;99.90;;;;;;6276836;22;19961;-82
2023/12/14 02:24:44;;;;;;;;;;;9.00;99.90;;;;;;6276710;22;19922;-82
2023/12/14 02:27:10;;;;;;;;;;;9.00;99.90;;;;;;6276851;22;20310;-82
2023/12/14 02:29:35;;;;;;;;;;;9.00;99.90;;;;;;6249806;22;19957;-82
2023/12/14 02:32:01;;;;;;;;;;;8.90;99.90;;;;;;6276299;22;20285;-82
2023/12/14 02:34:26;;;;;;;;;;;9.00;99.90;;;;;;6276362;22;20322;-81
2023/12/14 02:36:52;;;;;;;;;;;9.00;99.90;;;;;;6276587;22;19903;-82
2023/12/14 02:39:17;;;;;;;;;;;8.90;99.90;;;;;;6276830;22;19906;-82
2023/12/14 02:41:43;;;;;;;;;;;8.90;99.90;;;;;;6276294;22;19925;-81
2023/12/14 02:44:09;;;;;;;;;;;8.90;99.90;;;;;;6275446;22;19906;-81
2023/12/14 02:46:34;;;;;;;;;;;8.90;99.90;;;;;;6276509;22;19907;-81
2023/12/14 02:49:00;;;;;;;;;;;8.90;99.90;;;;;;6276385;22;19903;-82
2023/12/14 02:51:25;;;;;;;;;;;8.90;99.90;;;;;;6272972;22;19903;-82
2023/12/14 02:53:51;;;;;;;;;;;8.80;99.90;;;;;;6273492;22;19903;-82
2023/12/14 02:56:17;;;;;;;;;;;8.80;99.90;;;;;;6276289;22;19899;-82
2023/12/14 02:58:42;;;;;;;;;;;8.80;99.90;;;;;;6277186;22;19899;-83
2023/12/14 03:01:08;;;;;;;;;;;8.80;99.90;;;;;;6277251;22;19926;-83
2023/12/14 03:03:33;;;;;;;;;;;8.80;99.90;;;;;;6277218;22;19899;-82
2023/12/14 03:05:59;;;;;;;;;;;8.80;99.90;;;;;;6277240;22;19909;-82
2023/12/14 03:08:24;;;;;;;;;;;8.80;99.90;;;;;;6278041;22;19945;-82
2023/12/14 03:10:50;;;;;;;;;;;8.70;99.90;;;;;;6276778;22;19953;-83
2023/12/14 03:13:15;;;;;;;;;;;8.70;99.90;;;;;;6277766;22;19899;-82
2023/12/14 03:15:43;;;;;;;;;;;8.70;99.90;;;;;;6277040;22;19910;-82
2023/12/14 03:18:08;;;;;;;;;;;8.70;99.90;;;;;;6250633;22;19907;-82
2023/12/14 03:20:34;;;;;;;;;;;8.60;99.90;;;;;;6275952;22;20209;-81
2023/12/14 03:22:59;;;;;;;;;;;8.60;99.90;;;;;;6275982;22;19899;-82
2023/12/14 03:25:25;;;;;;;;;;;8.50;99.90;;;;;;6276942;22;19954;-82
2023/12/14 03:27:50;;;;;;;;;;;8.50;99.90;;;;;;6275641;22;19935;-82
2023/12/14 03:30:16;;;;;;;;;;;8.50;99.90;;;;;;6249631;22;19899;-82
2023/12/14 03:32:42;;;;;;;;;;;8.50;99.90;;;;;;6276606;22;19899;-81
2023/12/14 03:35:08;;;;;;;;;;;8.50;99.90;;;;;;6276281;22;19915;-82
2023/12/14 03:37:33;;;;;;;;;;;8.50;99.90;;;;;;6276241;22;20336;-81
2023/12/14 03:39:59;;;;;;;;;;;8.50;99.90;;;;;;6276424;22;20400;-82
2023/12/14 03:42:25;;;;;;;;;;;8.40;99.90;;;;;;6276069;22;19922;-82
2023/12/14 03:44:50;;;;;;;;;;;8.40;99.90;;;;;;6276871;22;19900;-81
2023/12/14 03:47:16;;;;;;;;;;;8.40;99.90;;;;;;6249584;22;19918;-82
2023/12/14 03:49:41;;;;;;;;;;;8.30;99.90;;;;;;6249817;22;19910;-81
2023/12/14 03:52:08;;;;;;;;;;;8.30;99.90;;;;;;6275750;22;20315;-80
2023/12/14 03:54:34;;;;;;;;;;;8.30;99.90;;;;;;6276581;22;19981;-81
2023/12/14 03:56:59;;;;;;;;;;;8.30;99.90;;;;;;6277276;22;19949;-81
2023/12/14 03:59:25;;;;;;;;;;;8.30;99.90;;;;;;6276989;22;19950;-82
2023/12/14 04:01:50;;;;;;;;;;;8.30;99.90;;;;;;6276079;22;20305;-82
2023/12/14 04:04:16;;;;;;;;;;;8.30;99.90;;;;;;6249401;22;19903;-82
2023/12/14 04:06:41;;;;;;;;;;;8.40;99.90;;;;;;6276753;22;19899;-82
2023/12/14 04:09:07;;;;;;;;;;;8.30;99.90;;;;;;6276570;22;19903;-81
2023/12/14 04:11:32;;;;;;;;;;;8.30;99.90;;;;;;6276263;22;20364;-82
2023/12/14 04:13:58;;;;;;;;;;;8.30;99.90;;;;;;6276868;22;19985;-82
2023/12/14 04:16:24;;;;;;;;;;;8.30;99.90;;;;;;6276722;22;19899;-82
2023/12/14 04:18:49;;;;;;;;;;;8.30;99.90;;;;;;6276697;22;19906;-81
2023/12/14 04:21:15;;;;;;;;;;;8.20;99.90;;;;;;6248723;22;19895;-82
2023/12/14 04:23:40;;;;;;;;;;;8.10;99.90;;;;;;6277046;22;20260;-82
2023/12/14 04:26:07;;;;;;;;;;;8.10;99.90;;;;;;6276390;22;19961;-82
2023/12/14 04:28:33;;;;;;;;;;;8.00;99.90;;;;;;6276653;22;19906;-82
2023/12/14 04:30:58;;;;;;;;;;;8.00;99.90;;;;;;6276329;22;19907;-82
2023/12/14 04:33:24;;;;;;;;;;;8.00;99.90;;;;;;6275821;22;19903;-82
2023/12/14 04:35:49;;;;;;;;;;;8.00;99.90;;;;;;6276043;22;19942;-82
2023/12/14 04:38:15;;;;;;;;;;;8.00;99.90;;;;;;6276197;22;19931;-82
2023/12/14 04:40:40;;;;;;;;;;;8.00;99.90;;;;;;6275965;22;19945;-82
2023/12/14 04:43:06;;;;;;;;;;;8.00;99.90;;;;;;6274720;22;19899;-82
2023/12/14 04:45:31;;;;;;;;;;;8.00;99.90;;;;;;6276122;22;19899;-81
2023/12/14 04:47:57;;;;;;;;;;;8.00;99.90;;;;;;6276388;22;20260;-82
2023/12/14 04:50:22;;;;;;;;;;;8.10;99.90;;;;;;6276689;22;20333;-82
2023/12/14 04:52:48;;;;;;;;;;;8.10;99.90;;;;;;6276122;22;19899;-82
2023/12/14 04:55:13;;;;;;;;;;;8.10;99.90;;;;;;6249801;22;19935;-82
2023/12/14 04:57:39;;;;;;;;;;;8.10;99.90;;;;;;6275612;22;19910;-81
2023/12/14 05:00:05;;;;;;;;;;;8.10;99.90;;;;;;6276234;22;19949;-81
2023/12/14 05:02:32;;;;;;;;;;;8.00;99.90;;;;;;6275640;22;20213;-81
2023/12/14 05:04:57;;;;;;;;;;;8.00;99.90;;;;;;6275991;22;19899;-81
2023/12/14 05:07:23;;;;;;;;;;;8.00;99.90;;;;;;6276147;22;19906;-81
2023/12/14 05:09:49;;;;;;;;;;;8.00;99.90;;;;;;6276788;22;20336;-81
2023/12/14 05:12:14;;;;;;;;;;;8.00;99.90;;;;;;6276340;22;19900;-81
2023/12/14 05:14:40;;;;;;;;;;;7.90;99.90;;;;;;6276100;22;19903;-81
2023/12/14 05:17:05;;;;;;;;;;;7.90;99.90;;;;;;6276293;22;19907;-82
2023/12/14 05:19:34;;;;;;;;;;;7.90;99.90;;;;;;6276126;22;19965;-81
2023/12/14 05:22:00;;;;;;;;;;;7.90;99.90;;;;;;6275532;22;19900;-81
2023/12/14 05:24:25;;;;;;;;;;;7.90;99.90;;;;;;6276269;22;20219;-82
2023/12/14 05:26:51;;;;;;;;;;;7.90;99.90;;;;;;6275953;22;20309;-82
2023/12/14 05:29:17;;;;;;;;;;;7.90;99.90;;;;;;6249292;22;19903;-83
2023/12/14 05:31:42;;;;;;;;;;;7.80;99.90;;;;;;6275331;22;20294;-82
2023/12/14 05:34:08;;;;;;;;;;;7.80;99.90;;;;;;6248672;22;19938;-82
2023/12/14 05:36:33;;;;;;;;;;;7.80;99.90;;;;;;6248826;22;19903;-81
2023/12/14 05:38:59;;;;;;;;;;;7.70;99.90;;;;;;6275878;22;20344;-81
2023/12/14 05:41:25;;;;;;;;;;;7.70;99.90;;;;;;6275821;22;19978;-82
2023/12/14 05:43:51;;;;;;;;;;;7.70;99.90;;;;;;6276384;22;20021;-81
2023/12/14 05:46:22;;;;;;;;;;;7.70;99.90;;;;;;6278039;22;20248;-82
2023/12/14 05:48:49;;;;;;;;;;;7.60;99.90;;;;;;6278046;22;19911;-81
2023/12/14 05:51:25;;;;;;;;;;;7.60;99.90;;;;;;6278339;22;19974;-81
2023/12/14 05:53:51;;;;;;;;;;;7.60;99.90;;;;;;6278587;22;19899;-81
2023/12/14 05:56:17;;;;;;;;;;;7.60;99.90;;;;;;6278584;22;20264;-82
2023/12/14 05:58:43;;;;;;;;;;;7.50;99.90;;;;;;6278097;22;19972;-82
2023/12/14 06:01:08;;;;;;;;;;;7.60;99.90;;;;;;6277762;22;20293;-82
2023/12/14 06:03:34;;;;;;;;;;;7.60;99.90;;;;;;6278372;22;19922;-82
2023/12/14 06:05:59;;;;;;;;;;;7.60;99.90;;;;;;6277930;22;19909;-82
2023/12/14 06:08:28;;;;;;;;;;;7.60;99.90;;;;;;6273710;22;20233;-80
2023/12/14 06:10:54;;;;;;;;;;;7.60;99.90;;;;;;6276966;22;19899;-83
2023/12/14 06:13:21;;;;;;;;;;;7.60;99.90;;;;;;6277742;22;19957;-81
2023/12/14 06:15:46;;;;;;;;;;;7.60;99.90;;;;;;6277890;22;19907;-83
2023/12/14 06:18:12;;;;;;;;;;;7.60;99.90;;;;;;6277624;22;19906;-83
2023/12/14 06:20:40;;;;;;;;;;;7.50;99.90;;;;;;6250798;22;19927;-83
2023/12/14 06:23:06;;;;;;;;;;;7.50;99.90;;;;;;6275593;22;20518;-80
2023/12/14 06:25:31;;;;;;;;;;;7.50;99.90;;;;;;6275326;22;19927;-81
2023/12/14 06:27:57;;;;;;;;;;;7.40;99.90;;;;;;6276028;22;19939;-81
2023/12/14 06:30:23;;;;;;;;;;;7.40;99.90;;;;;;6275362;22;19900;-81
2023/12/14 06:32:49;;;;;;;;;;;7.40;99.90;;;;;;6275786;22;19961;-83
2023/12/14 06:35:15;;;;;;;;;;;7.30;99.90;;;;;;6276485;22;19907;-83
2023/12/14 06:37:41;;;;;;;;;;;7.30;99.90;;;;;;6278127;22;19985;-83
2023/12/14 06:40:08;;;;;;;;;;;7.20;99.90;;;;;;6278088;22;19900;-83
2023/12/14 06:42:33;;;;;;;;;;;7.20;99.90;;;;;;6277940;22;19903;-84
2023/12/14 06:45:00;;;;;;;;;;;7.20;99.90;;;;;;6250946;22;19899;-83
2023/12/14 06:47:25;;;;;;;;;;;7.20;99.90;;;;;;6277912;22;19911;-83
2023/12/14 06:49:51;;;;;;;;;;;7.20;99.90;;;;;;6277514;22;19922;-83
2023/12/14 06:52:16;;;;;;;;;;;7.30;99.90;;;;;;6277750;22;19907;-85
2023/12/14 06:54:42;;;;;;;;;;;7.30;99.90;;;;;;6250940;22;19977;-84
2023/12/14 06:57:07;;;;;;;;;;;7.40;99.90;;;;;;6278122;22;20222;-85
2023/12/14 06:59:33;;;;;;;;;;;7.40;99.90;;;;;;6278235;22;20313;-85
2023/12/14 07:01:58;;;;;;;;;;;7.40;99.90;;;;;;6278024;22;19900;-85
2023/12/14 07:04:24;;;;;;;;;;;7.30;99.90;;;;;;6277822;22;19899;-84
2023/12/14 07:06:51;;;;;;;;;;;7.40;99.90;;;;;;6277613;22;19899;-80
2023/12/14 07:09:16;;;;;;;;;;;7.30;99.90;;;;;;6278449;22;19900;-82
2023/12/14 07:11:42;;;;;;;;;;;7.30;99.90;;;;;;6276907;22;19906;-83
2023/12/14 07:14:07;;;;;;;;;;;7.30;99.90;;;;;;6276926;22;19911;-83
2023/12/14 07:16:33;;;;;;;;;;;7.30;99.90;;;;;;6277533;22;19957;-82
2023/12/14 07:18:59;;;;;;;;;;;7.30;99.90;;;;;;6276562;22;19914;-81
2023/12/14 07:21:24;;;;;;;;;;;7.30;99.90;;;;;;6249192;22;19931;-81
2023/12/14 07:23:50;;;;;;;;;;;7.30;99.90;;;;;;6275789;22;19904;-81
2023/12/14 07:26:15;;;;;;;;;;;7.40;99.90;;;;;;6249410;22;20321;-82
2023/12/14 07:28:41;;;;;;;;;;;7.40;99.90;;;;;;6249730;22;19956;-82
2023/12/14 07:31:06;;;;;;;;;;;7.40;99.90;;;;;;6277463;22;19922;-81
2023/12/14 07:33:32;;;;;;;;;;;7.40;99.90;;;;;;6277226;22;19906;-82
2023/12/14 07:35:57;;;;;;;;;;;7.40;99.90;;;;;;6276369;22;20294;-84
2023/12/14 07:38:23;;;;;;;;;;;7.40;99.90;;;;;;6277019;22;19903;-84
2023/12/14 07:40:50;;;;;;;;;;;7.50;99.90;;;;;;6276241;22;19930;-84
2023/12/14 07:43:15;;;;;;;;;;;7.40;99.90;;;;;;6276882;22;19899;-86
2023/12/14 07:45:41;;;;;;;;;;;7.40;99.90;;;;;;6276487;22;19899;-85
2023/12/14 07:48:06;;;;;;;;;;;7.40;99.90;;;;;;6276706;22;19933;-82
2023/12/14 07:50:32;;;;;;;;;;;7.50;99.90;;;;;;6277520;22;20344;-82
2023/12/14 07:52:57;;;;;;;;;;;7.50;99.90;;;;;;6276952;22;20249;-82
2023/12/14 07:55:23;;;;;;;;;;;7.50;99.90;;;;;;6249484;22;19952;-82
2023/12/14 07:57:49;;;;;;;;;;;7.50;99.90;;;;;;6276602;22;19905;-83
2023/12/14 08:00:15;;;;;;;;;;;7.50;99.90;;;;;;6276325;22;19949;-82
2023/12/14 08:02:41;;;;;;;;;;;7.50;99.90;;;;;;6276496;22;19906;-82
2023/12/14 08:05:07;;;;;;;;;;;7.50;99.90;;;;;;6277116;22;19948;-82
2023/12/14 08:07:33;;;;;;;;;;;7.50;99.90;;;;;;6276102;22;19977;-82
2023/12/14 08:09:58;;;;;;;;;;;7.50;99.90;;;;;;6276144;22;19981;-83
2023/12/14 08:12:33;;;;;;;;;;;7.60;99.90;;;;;;6276462;22;19934;-83
2023/12/14 08:15:14;;;;;;;;;;;7.70;99.90;;;;;;6249692;22;20310;-83
2023/12/14 08:17:39;;;;;;;;;;;7.70;99.90;;;;;;6278061;22;19906;-83
2023/12/14 08:20:08;;;;;;;;;;;7.80;99.90;;;;;;6276328;22;19904;-82
2023/12/14 08:22:34;;;;;;;;;;;7.80;99.90;;;;;;6276216;22;20268;-83
2023/12/14 08:25:00;;;;;;;;;;;7.80;99.90;;;;;;6275836;22;19899;-83
2023/12/14 08:27:25;;;;;;;;;;;7.80;99.90;;;;;;6276326;22;19906;-83
2023/12/14 08:29:51;;;;;;;;;;;7.90;99.90;;;;;;6249360;22;19906;-83
2023/12/14 08:32:16;;;;;;;;;;;7.90;99.90;;;;;;6276401;22;19906;-83
2023/12/14 08:34:42;;;;;;;;;;;7.90;99.90;;;;;;6276483;22;19910;-83
2023/12/14 08:37:07;;;;;;;;;;;7.90;99.90;;;;;;6244368;22;19903;-83
2023/12/14 08:39:33;;;;;;;;;;;7.90;99.90;;;;;;6273764;22;19899;-82
2023/12/14 08:41:58;;;;;;;;;;;7.90;99.90;;;;;;6276173;22;19899;-83
2023/12/14 08:44:24;;;;;;;;;;;7.90;99.90;;;;;;6276592;22;19899;-82
2023/12/14 08:46:49;;;;;;;;;;;7.90;99.90;;;;;;6276793;22;19929;-81
2023/12/14 08:49:15;;;;;;;;;;;7.90;99.90;;;;;;6276272;22;19910;-82
2023/12/14 08:51:41;;;;;;;;;;;7.90;99.90;;;;;;6276522;22;19945;-82
2023/12/14 08:54:07;;;;;;;;;;;8.00;99.90;;;;;;6271844;22;19907;-82
2023/12/14 08:56:33;;;;;;;;;;;7.90;99.90;;;;;;6276193;22;19903;-82
2023/12/14 08:59:00;;;;;;;;;;;7.90;99.90;;;;;;6244895;22;19906;-82
2023/12/14 09:01:25;;;;;;;;;;;8.00;99.90;;;;;;6276198;22;19953;-81
2023/12/14 09:03:51;;;;;;;;;;;7.90;99.90;;;;;;6275148;22;19896;-81
2023/12/14 09:06:17;;;;;;;;;;;8.00;99.90;;;;;;6275285;22;20385;-81
2023/12/14 09:08:43;;;;;;;;;;;8.10;99.90;;;;;;6248868;22;19945;-81
2023/12/14 09:11:09;;;;;;;;;;;8.10;99.90;;;;;;6275462;22;19938;-81
2023/12/14 09:13:34;;;;;;;;;;;8.20;99.90;;;;;;6274340;22;19899;-81
2023/12/14 09:16:00;;;;;;;;;;;8.20;99.90;;;;;;6249218;22;20298;-85
2023/12/14 09:18:25;;;;;;;;;;;8.30;99.90;;;;;;6277404;22;20298;-84
2023/12/14 09:20:51;;;;;;;;;;;8.30;99.90;;;;;;6278974;22;19903;-85
2023/12/14 09:23:16;;;;;;;;;;;8.40;99.90;;;;;;6279037;22;19903;-85
2023/12/14 09:25:42;;;;;;;;;;;8.50;99.90;;;;;;6279769;22;19926;-87
2023/12/14 09:28:07;;;;;;;;;;;8.50;99.90;;;;;;6280553;22;19909;-87
2023/12/14 09:30:33;;;;;;;;;;;8.60;99.90;;;;;;6280688;22;19903;-87
2023/12/14 09:32:59;;;;;;;;;;;8.70;99.90;;;;;;6280686;22;19900;-87
2023/12/14 09:35:24;;;;;;;;;;;8.80;99.90;;;;;;6279812;22;19906;-86
2023/12/14 09:37:50;;;;;;;;;;;8.90;99.90;;;;;;6280696;22;20237;-86
2023/12/14 09:40:16;;;;;;;;;;;9.00;99.90;;;;;;6280683;22;19906;-87
2023/12/14 09:42:42;;;;;;;;;;;9.10;99.90;;;;;;6280651;22;19933;-88
2023/12/14 09:45:09;;;;;;;;;;;9.20;99.90;;;;;;6280319;22;19903;-87
2023/12/14 09:47:35;;;;;;;;;;;9.40;99.90;;;;;;6280266;22;19911;-87
2023/12/14 09:50:00;;;;;;;;;;;9.50;99.90;;;;;;6280578;22;19906;-87
2023/12/14 09:52:26;;;;;;;;;;;9.60;99.90;;;;;;6280575;22;19899;-87
2023/12/14 09:54:52;;;;;;;;;;;9.80;99.90;;;;;;6278461;22;19903;-86
2023/12/14 09:57:20;;;;;;;;;;;9.90;99.90;;;;;;6279908;22;20298;-85
2023/12/14 09:59:55;;;;;;;;;;;10.00;99.90;;;;;;6278373;22;20333;-85
2023/12/14 10:02:24;;;;;;;;;;;10.20;99.90;;;;;;6277756;22;19899;-85
2023/12/14 10:04:50;;;;;;;;;;;10.20;99.90;;;;;;6277977;22;19899;-84
2023/12/14 10:07:16;;;;;;;;;;;10.40;99.90;;;;;;6277487;22;19934;-84
2023/12/14 10:09:42;;;;;;;;;;;10.50;99.90;;;;;;6278723;22;19899;-84
2023/12/14 10:12:08;;;;;;;;;;;10.60;99.90;;;;;;6278082;22;19903;-84
2023/12/14 10:14:35;;;;;;;;;;;10.70;99.90;;;;;;6277424;22;19910;-84
2023/12/14 10:17:17;;;;;;;;;;;10.80;99.90;;;;;;6276507;22;19906;-84
2023/12/14 10:19:44;;;;;;;;;;;11.00;99.90;;;;;;6277634;22;19900;-83
2023/12/14 10:22:09;;;;;;;;;;;11.10;99.90;;;;;;6277114;22;19978;-83
2023/12/14 10:24:35;;;;;;;;;;;11.20;99.90;;;;;;6276975;22;20243;-81
2023/12/14 10:27:05;;;;;;;;;;;11.20;99.90;;;;;;6276229;22;19903;-83
2023/12/14 10:29:32;;;;;;;;;;;11.30;99.70;;;;;;6277111;22;20264;-85
2023/12/14 10:31:59;;;;;;;;;;;11.40;99.90;;;;;;6276913;22;19949;-84
2023/12/14 10:34:24;;;;;;;;;;;11.60;99.90;;;;;;6276828;22;20430;-81
2023/12/14 10:36:51;;;;;;;;;;;11.70;99.60;;;;;;6276583;22;19929;-81
2023/12/14 10:39:18;;;;;;;;;;;11.80;99.70;;;;;;6276673;22;19899;-81
2023/12/14 10:41:47;;;;;;;;;;;12.00;99.80;;;;;;6277028;22;20298;-81
2023/12/14 10:44:12;;;;;;;;;;;12.20;99.30;;;;;;6276602;22;19949;-80
2023/12/14 10:46:38;;;;;;;;;;;12.40;97.70;;;;;;6276389;22;20234;-80
2023/12/14 10:49:06;;;;;;;;;;;12.40;97.60;;;;;;6277191;22;20276;-81
2023/12/14 10:51:32;;;;;;;;;;;12.50;97.90;;;;;;6277734;22;19899;-81
2023/12/14 10:53:58;;;;;;;;;;;12.50;98.10;;;;;;6277595;22;20305;-81
2023/12/14 10:56:23;;;;;;;;;;;12.50;97.40;;;;;;6277534;22;19978;-81
2023/12/14 10:58:53;;;;;;;;;;;12.50;97.70;;;;;;6277657;22;19970;-81
2023/12/14 11:01:19;;;;;;;;;;;12.60;97.50;;;;;;6250588;22;20533;-84
2023/12/14 11:03:46;;;;;;;;;;;12.70;97.20;;;;;;6277339;22;19945;-80
2023/12/14 11:06:22;;;;;;;;;;;12.70;97.10;;;;;;6276680;22;19982;-80
2023/12/14 11:08:47;;;;;;;;;;;12.80;96.70;;;;;;6277616;22;19899;-80
2023/12/14 11:11:20;;;;;;;;;;;13.00;96.70;;;;;;6276992;22;19899;-80
2023/12/14 11:13:47;;;;;;;;;;;13.20;96.90;;;;;;6277938;22;19899;-80
2023/12/14 11:16:15;;;;;;;;;;;13.30;96.70;;;;;;6277320;22;19914;-80
2023/12/14 11:18:40;;;;;;;;;;;13.50;96.80;;;;;;6249144;22;19926;-80
2023/12/14 11:21:06;;;;;;;;;;;13.70;96.40;;;;;;6277165;22;19945;-80
2023/12/14 11:23:33;;;;;;;;;;;13.90;96.30;;;;;;6277838;22;19903;-80
2023/12/14 11:25:59;;;;;;;;;;;14.00;95.20;;;;;;6277355;22;19899;-81
2023/12/14 11:28:26;;;;;;;;;;;14.10;94.90;;;;;;6277453;22;19899;-81
2023/12/14 11:30:52;;;;;;;;;;;14.20;94.60;;;;;;6277015;22;19926;-80
2023/12/14 11:33:17;;;;;;;;;;;14.30;93.50;;;;;;6249989;22;19899;-80
2023/12/14 11:35:43;;;;;;;;;;;14.40;94.70;;;;;;6249956;22;19907;-80
2023/12/14 11:38:12;;;;;;;;;;;14.80;95.10;;;;;;6277486;22;20321;-81
2023/12/14 11:40:44;;;;;;;;;;;15.20;94.20;;;;;;6277576;22;19905;-81
2023/12/14 11:43:09;;;;;;;;;;;15.90;92.40;;;;;;6276772;22;19934;-80
2023/12/14 11:45:36;;;;;;;;;;;16.30;91.30;;;;;;6277312;22;19899;-80
2023/12/14 11:48:04;;;;;;;;;;;16.80;90.20;;;;;;6250111;22;19946;-80
2023/12/14 11:50:34;;;;;;;;;;;17.50;91.10;;;;;;6272354;22;19942;-85
2023/12/14 11:53:01;;;;;;;;;;;18.50;87.80;;;;;;6280557;22;19938;-85
2023/12/14 11:55:26;;;;;;;;;;;19.40;84.50;;;;;;6308195;22;20305;-84
2023/12/14 11:57:53;;;;;;;;;;;20.20;81.70;;;;;;6307685;22;19944;-85
2023/12/14 12:00:22;;;;;;;;;;;20.80;78.70;;;;;;6308481;22;20297;-85
2023/12/14 12:02:48;;;;;;;;;;;21.30;75.70;;;;;;6307770;22;20345;-85
2023/12/14 12:05:18;;;;;;;;;;;21.70;77.70;;;;;;6280110;22;19970;-85
2023/12/14 12:07:44;;;;;;;;;;;22.00;72.70;;;;;;6307970;22;19937;-86
2023/12/14 12:10:10;;;;;;;;;;;22.30;71.30;;;;;;6307503;22;19907;-85
2023/12/14 12:12:42;;;;;;;;;;;22.50;70.30;;;;;;6307888;22;19898;-86
2023/12/14 12:15:08;;;;;;;;;;;22.60;72.10;;;;;;6307982;22;19985;-85
2023/12/14 12:17:37;;;;;;;;;;;22.70;69.10;;;;;;6305845;22;19934;-86
2023/12/14 12:20:05;;;;;;;;;;;22.70;69.30;;;;;;6307489;22;19898;-85
2023/12/14 12:22:31;;;;;;;;;;;22.70;70.10;;;;;;6308491;22;19906;-86
2023/12/14 12:24:58;;;;;;;;;;;22.80;69.70;;;;;;6307747;22;19973;-85
2023/12/14 12:27:23;;;;;;;;;;;22.70;66.60;;;;;;6307291;22;20306;-85
2023/12/14 12:29:53;;;;;;;;;;;22.30;66.50;;;;;;6307213;22;19960;-86
2023/12/14 12:32:18;;;;;;;;;;;21.90;69.30;;;;;;6307197;22;19930;-85
2023/12/14 12:34:44;;;;;;;;;;;21.70;68.80;;;;;;6306901;22;19914;-85
2023/12/14 12:37:10;;;;;;;;;;;21.40;70.80;;;;;;6307263;22;20265;-86
2023/12/14 12:39:35;;;;;;;;;;;21.20;70.20;;;;;;6306444;22;19925;-85
2023/12/14 12:42:01;;;;;;;;;;;20.90;70.00;;;;;;6306585;22;19905;-84
2023/12/14 12:44:26;;;;;;;;;;;20.70;72.80;;;;;;6306304;22;19992;-85
2023/12/14 12:46:56;;;;;;;;;;;20.50;71.10;;;;;;6306206;22;19929;-84
2023/12/14 12:49:22;;;;;;;;;;;20.40;73.80;;;;;;6278550;22;19902;-84
2023/12/14 12:51:47;;;;;;;;;;;20.40;74.30;;;;;;6306232;22;19911;-80
2023/12/14 12:54:13;;;;;;;;;;;20.50;72.30;;;;;;6307527;22;19906;-80
2023/12/14 12:56:39;;;;;;;;;;;20.60;72.70;;;;;;6308933;22;20293;-80
2023/12/14 12:59:05;;;;;;;;;;;20.60;72.60;;;;;;6282587;22;19981;-79
2023/12/14 13:01:30;;;;;;;;;;;20.60;71.50;;;;;;6309548;22;20031;-80
2023/12/14 13:03:57;;;;;;;;;;;20.50;71.80;;;;;;6309834;22;19898;-79
2023/12/14 13:06:25;;;;;;;;;;;20.50;71.30;;;;;;6309608;22;19899;-80
2023/12/14 13:08:51;;;;;;;;;;;20.40;71.90;;;;;;6307298;22;20323;-79
2023/12/14 13:11:17;;;;;;;;;;;20.30;73.10;;;;;;6309119;22;19899;-79
2023/12/14 13:13:43;;;;;;;;;;;20.20;73.60;;;;;;6309278;22;19984;-79
2023/12/14 13:16:16;;;;;;;;;;;20.20;72.40;;;;;;6308860;22;19910;-79
2023/12/14 13:18:42;;;;;;;;;;;20.20;74.00;;;;;;6281847;22;20320;-78
2023/12/14 13:21:08;;;;;;;;;;;20.10;74.10;;;;;;6308749;22;19924;-79
2023/12/14 13:23:34;;;;;;;;;;;19.90;73.20;;;;;;6309809;22;19935;-79
2023/12/14 13:25:59;;;;;;;;;;;19.60;73.00;;;;;;6307521;22;19903;-79
2023/12/14 13:28:25;;;;;;;;;;;19.20;74.00;;;;;;6309630;22;20221;-79
2023/12/14 13:30:50;;;;;;;;;;;18.70;74.80;;;;;;6308426;22;19909;-83
2023/12/14 13:33:16;;;;;;;;;;;18.20;75.40;;;;;;6308888;22;19899;-83
2023/12/14 13:35:42;;;;;;;;;;;17.80;76.40;;;;;;6308630;22;19934;-83
2023/12/14 13:38:08;;;;;;;;;;;17.40;77.60;;;;;;6309422;22;19907;-84
2023/12/14 13:40:33;;;;;;;;;;;17.10;78.70;;;;;;6310444;22;20265;-84
2023/12/14 13:43:03;;;;;;;;;;;16.80;79.90;;;;;;6309722;22;20267;-79
2023/12/14 13:45:30;;;;;;;;;;;16.50;80.40;;;;;;6307686;22;19944;-79
2023/12/14 13:47:56;;;;;;;;;;;16.30;80.80;;;;;;6309296;22;19899;-80
2023/12/14 13:50:21;;;;;;;;;;;16.10;81.40;;;;;;6280017;22;19968;-79
2023/12/14 13:52:47;;;;;;;;;;;15.90;82.30;;;;;;6307993;22;19986;-79
2023/12/14 13:55:12;;;;;;;;;;;15.80;83.80;;;;;;6308875;22;19903;-79
2023/12/14 13:57:38;;;;;;;;;;;15.70;84.50;;;;;;6281967;22;19952;-79
2023/12/14 14:00:04;;;;;;;;;;;15.60;84.60;;;;;;6308336;22;19909;-79
2023/12/14 14:02:29;;;;;;;;;;;15.50;84.90;;;;;;6308421;22;19899;-79
2023/12/14 14:04:55;;;;;;;;;;;15.40;85.20;;;;;;6307825;22;19903;-82
2023/12/14 14:07:22;;;;;;;;;;;15.20;85.40;;;;;;6282990;22;19970;-84
2023/12/14 14:09:48;;;;;;;;;;;15.10;85.90;;;;;;6285179;22;20214;-86
2023/12/14 14:12:13;;;;;;;;;;;15.00;86.50;;;;;;6310843;22;19989;-86
2023/12/14 14:14:39;;;;;;;;;;;15.00;87.00;;;;;;6310554;22;19955;-86
2023/12/14 14:17:06;;;;;;;;;;;14.90;87.40;;;;;;6310661;22;19906;-86
2023/12/14 14:19:31;;;;;;;;;;;14.80;87.60;;;;;;6310377;22;19906;-85